Blue Grass (LEX)

 

Airport Diagram
Current Weather/Forecast (VFR Conditions)
METAR KLEX 040254Z 03004KT 10SM CLR 19/12 A3006 RMK AO2 SLP170 T01940122 51012
TAF KLEX 032320Z 0400/0424 02009KT P6SM SCT060 FM040200 02005KT P6SM SKC FM041600 01007KT P6SM SCT070

Airport Information

All Charts
General
Chart Name View
AIRPORT DIAGRAM
TAKEOFF MINIMUMS
ALTERNATE MINIMUMS
HOT SPOT

Arrivals
Chart Name Download
CLEGG FIVE

Approaches
Chart Name Download
ILS OR LOC RWY 04
ILS OR LOC RWY 22
RNAV (GPS) RWY 04
RNAV (GPS) RWY 09
RNAV (GPS) RWY 22
RNAV (GPS) RWY 27
VOR-A


Airport Statistics
Departures Arrivals Local
All Collected Stats since June 2016: 520 486 25
2021 Stats: 168 164 10
August Stats: 2 1 0

Inbound Traffic (Arrivals) - 0

No inbound traffic.


Outbound Traffic (Departures) - 0

No outbound traffic.


Local Traffic (Pattern) - 0

No local traffic.